sensor_id;sensor_type;location;lat;lon;timestamp;temperature;humidity
14142;DHT22;7151;52.246;4.820;2022-09-14T00:01:40;22.70;54.40
14142;DHT22;7151;52.246;4.820;2022-09-14T00:04:13;22.70;54.50
14142;DHT22;7151;52.246;4.820;2022-09-14T00:06:40;22.60;54.50
14142;DHT22;7151;52.246;4.820;2022-09-14T00:09:06;22.60;54.60
14142;DHT22;7151;52.246;4.820;2022-09-14T00:11:34;22.60;54.60
14142;DHT22;7151;52.246;4.820;2022-09-14T00:14:00;22.60;54.80
14142;DHT22;7151;52.246;4.820;2022-09-14T00:16:38;22.60;54.80
14142;DHT22;7151;52.246;4.820;2022-09-14T00:19:12;22.60;54.90
14142;DHT22;7151;52.246;4.820;2022-09-14T00:21:39;22.60;54.90
14142;DHT22;7151;52.246;4.820;2022-09-14T00:24:08;22.60;55.00
14142;DHT22;7151;52.246;4.820;2022-09-14T00:26:34;22.60;55.10
14142;DHT22;7151;52.246;4.820;2022-09-14T00:29:00;22.60;55.10
14142;DHT22;7151;52.246;4.820;2022-09-14T00:31:34;22.50;55.10
14142;DHT22;7151;52.246;4.820;2022-09-14T00:34:00;22.50;55.20
14142;DHT22;7151;52.246;4.820;2022-09-14T00:36:28;22.50;55.20
14142;DHT22;7151;52.246;4.820;2022-09-14T00:38:55;22.50;55.40
14142;DHT22;7151;52.246;4.820;2022-09-14T00:41:25;22.50;55.50
14142;DHT22;7151;52.246;4.820;2022-09-14T00:46:52;22.50;55.60
14142;DHT22;7151;52.246;4.820;2022-09-14T00:52:00;22.40;55.60
14142;DHT22;7151;52.246;4.820;2022-09-14T00:54:28;22.40;55.70
14142;DHT22;7151;52.246;4.820;2022-09-14T00:56:57;22.40;55.60
14142;DHT22;7151;52.246;4.820;2022-09-14T00:59:26;22.40;55.60
14142;DHT22;7151;52.246;4.820;2022-09-14T01:01:53;22.40;56.30
14142;DHT22;7151;52.246;4.820;2022-09-14T01:04:19;22.40;55.80
14142;DHT22;7151;52.246;4.820;2022-09-14T01:07:26;22.30;55.80
14142;DHT22;7151;52.246;4.820;2022-09-14T01:15:26;22.30;56.10
14142;DHT22;7151;52.246;4.820;2022-09-14T01:18:28;22.30;56.10
14142;DHT22;7151;52.246;4.820;2022-09-14T01:21:04;22.30;56.30
14142;DHT22;7151;52.246;4.820;2022-09-14T01:28:53;22.30;56.80
14142;DHT22;7151;52.246;4.820;2022-09-14T01:31:30;22.30;57.00
14142;DHT22;7151;52.246;4.820;2022-09-14T01:34:06;22.20;57.10
14142;DHT22;7151;52.246;4.820;2022-09-14T01:36:35;22.20;57.20
14142;DHT22;7151;52.246;4.820;2022-09-14T01:39:03;22.20;57.40
14142;DHT22;7151;52.246;4.820;2022-09-14T01:41:29;22.20;57.60
14142;DHT22;7151;52.246;4.820;2022-09-14T01:44:00;22.20;57.70
14142;DHT22;7151;52.246;4.820;2022-09-14T01:46:38;22.20;57.90
14142;DHT22;7151;52.246;4.820;2022-09-14T01:49:13;22.20;58.20
14142;DHT22;7151;52.246;4.820;2022-09-14T01:51:46;22.20;58.40
14142;DHT22;7151;52.246;4.820;2022-09-14T01:54:20;22.20;58.50
14142;DHT22;7151;52.246;4.820;2022-09-14T01:56:52;22.10;58.60
14142;DHT22;7151;52.246;4.820;2022-09-14T01:59:22;22.10;58.90
14142;DHT22;7151;52.246;4.820;2022-09-14T02:01:59;22.10;59.00
14142;DHT22;7151;52.246;4.820;2022-09-14T02:04:53;22.00;59.20
14142;DHT22;7151;52.246;4.820;2022-09-14T02:07:22;22.00;59.50
14142;DHT22;7151;52.246;4.820;2022-09-14T02:09:50;22.00;59.40
14142;DHT22;7151;52.246;4.820;2022-09-14T02:12:17;22.00;59.60
14142;DHT22;7151;52.246;4.820;2022-09-14T02:14:44;22.00;59.70
14142;DHT22;7151;52.246;4.820;2022-09-14T02:17:10;22.00;59.90
14142;DHT22;7151;52.246;4.820;2022-09-14T02:19:44;22.00;60.10
14142;DHT22;7151;52.246;4.820;2022-09-14T02:22:11;22.00;60.40
14142;DHT22;7151;52.246;4.820;2022-09-14T02:24:37;22.00;60.40
14142;DHT22;7151;52.246;4.820;2022-09-14T02:27:03;22.00;60.40
14142;DHT22;7151;52.246;4.820;2022-09-14T02:29:30;21.90;60.40
14142;DHT22;7151;52.246;4.820;2022-09-14T02:35:37;21.90;60.90
14142;DHT22;7151;52.246;4.820;2022-09-14T02:40:54;21.90;60.90
14142;DHT22;7151;52.246;4.820;2022-09-14T02:43:30;21.90;61.30
14142;DHT22;7151;52.246;4.820;2022-09-14T02:46:15;21.80;61.30
14142;DHT22;7151;52.246;4.820;2022-09-14T02:49:03;21.80;61.60
14142;DHT22;7151;52.246;4.820;2022-09-14T02:51:34;21.80;61.70
14142;DHT22;7151;52.246;4.820;2022-09-14T02:54:18;21.80;61.80
14142;DHT22;7151;52.246;4.820;2022-09-14T02:56:45;21.80;62.10
14142;DHT22;7151;52.246;4.820;2022-09-14T02:59:11;21.80;62.00
14142;DHT22;7151;52.246;4.820;2022-09-14T03:01:37;21.80;62.10
14142;DHT22;7151;52.246;4.820;2022-09-14T03:04:02;21.80;62.30
14142;DHT22;7151;52.246;4.820;2022-09-14T03:06:28;21.80;62.40
14142;DHT22;7151;52.246;4.820;2022-09-14T03:08:53;21.80;62.60
14142;DHT22;7151;52.246;4.820;2022-09-14T03:11:19;21.80;62.70
14142;DHT22;7151;52.246;4.820;2022-09-14T03:13:45;21.80;62.80
14142;DHT22;7151;52.246;4.820;2022-09-14T03:16:14;21.80;62.80
14142;DHT22;7151;52.246;4.820;2022-09-14T03:18:40;21.80;62.90
14142;DHT22;7151;52.246;4.820;2022-09-14T03:21:16;21.70;62.80
14142;DHT22;7151;52.246;4.820;2022-09-14T03:23:47;21.70;63.10
14142;DHT22;7151;52.246;4.820;2022-09-14T03:26:18;21.70;63.10
14142;DHT22;7151;52.246;4.820;2022-09-14T03:28:43;21.70;63.10
14142;DHT22;7151;52.246;4.820;2022-09-14T03:31:10;21.70;63.30
14142;DHT22;7151;52.246;4.820;2022-09-14T03:33:36;21.70;63.30
14142;DHT22;7151;52.246;4.820;2022-09-14T03:36:14;21.70;63.30
14142;DHT22;7151;52.246;4.820;2022-09-14T03:38:45;21.70;63.50
14142;DHT22;7151;52.246;4.820;2022-09-14T03:41:12;21.60;63.40
14142;DHT22;7151;52.246;4.820;2022-09-14T03:43:38;21.60;63.50
14142;DHT22;7151;52.246;4.820;2022-09-14T03:46:05;21.60;63.50
14142;DHT22;7151;52.246;4.820;2022-09-14T03:48:31;21.60;63.50
14142;DHT22;7151;52.246;4.820;2022-09-14T03:51:00;21.60;63.70
14142;DHT22;7151;52.246;4.820;2022-09-14T03:53:26;21.60;63.70
14142;DHT22;7151;52.246;4.820;2022-09-14T03:55:52;21.60;63.70
14142;DHT22;7151;52.246;4.820;2022-09-14T03:58:18;21.60;63.70
14142;DHT22;7151;52.246;4.820;2022-09-14T04:00:43;21.50;63.70
14142;DHT22;7151;52.246;4.820;2022-09-14T04:03:09;21.50;63.70
14142;DHT22;7151;52.246;4.820;2022-09-14T04:05:34;21.50;63.80
14142;DHT22;7151;52.246;4.820;2022-09-14T04:08:00;21.60;64.00
14142;DHT22;7151;52.246;4.820;2022-09-14T04:10:26;21.50;64.00
14142;DHT22;7151;52.246;4.820;2022-09-14T04:12:51;21.50;64.10
14142;DHT22;7151;52.246;4.820;2022-09-14T04:15:17;21.50;64.10
14142;DHT22;7151;52.246;4.820;2022-09-14T04:17:42;21.50;64.10
14142;DHT22;7151;52.246;4.820;2022-09-14T04:20:08;21.40;64.20
14142;DHT22;7151;52.246;4.820;2022-09-14T04:22:34;21.40;64.20
14142;DHT22;7151;52.246;4.820;2022-09-14T04:24:59;21.40;64.30
14142;DHT22;7151;52.246;4.820;2022-09-14T04:27:25;21.40;64.30
14142;DHT22;7151;52.246;4.820;2022-09-14T04:29:50;21.40;64.40
14142;DHT22;7151;52.246;4.820;2022-09-14T04:32:16;21.40;64.40
14142;DHT22;7151;52.246;4.820;2022-09-14T04:34:42;21.40;64.50
14142;DHT22;7151;52.246;4.820;2022-09-14T04:37:07;21.30;64.60
14142;DHT22;7151;52.246;4.820;2022-09-14T04:39:33;21.40;64.70
14142;DHT22;7151;52.246;4.820;2022-09-14T04:41:58;21.30;64.70
14142;DHT22;7151;52.246;4.820;2022-09-14T04:44:24;21.30;64.70
14142;DHT22;7151;52.246;4.820;2022-09-14T04:46:49;21.30;64.80
14142;DHT22;7151;52.246;4.820;2022-09-14T04:49:16;21.30;64.90
14142;DHT22;7151;52.246;4.820;2022-09-14T04:51:43;21.30;65.00
14142;DHT22;7151;52.246;4.820;2022-09-14T04:54:13;21.30;65.00
14142;DHT22;7151;52.246;4.820;2022-09-14T04:56:40;21.30;65.10
14142;DHT22;7151;52.246;4.820;2022-09-14T04:59:05;21.30;65.10
14142;DHT22;7151;52.246;4.820;2022-09-14T05:01:38;21.30;65.20
14142;DHT22;7151;52.246;4.820;2022-09-14T05:04:05;21.30;65.30
14142;DHT22;7151;52.246;4.820;2022-09-14T05:06:33;21.20;65.20
14142;DHT22;7151;52.246;4.820;2022-09-14T05:09:00;21.20;65.30
14142;DHT22;7151;52.246;4.820;2022-09-14T05:11:28;21.20;65.40
14142;DHT22;7151;52.246;4.820;2022-09-14T05:13:55;21.20;65.50
14142;DHT22;7151;52.246;4.820;2022-09-14T05:16:26;21.20;65.60
14142;DHT22;7151;52.246;4.820;2022-09-14T05:18:54;21.20;65.80
14142;DHT22;7151;52.246;4.820;2022-09-14T05:21:21;21.20;65.80
14142;DHT22;7151;52.246;4.820;2022-09-14T05:23:51;21.20;65.90
14142;DHT22;7151;52.246;4.820;2022-09-14T05:26:17;21.20;66.00
14142;DHT22;7151;52.246;4.820;2022-09-14T05:28:47;21.20;66.00
14142;DHT22;7151;52.246;4.820;2022-09-14T05:31:13;21.20;66.10
14142;DHT22;7151;52.246;4.820;2022-09-14T05:33:41;21.20;66.20
14142;DHT22;7151;52.246;4.820;2022-09-14T05:36:07;21.10;66.30
14142;DHT22;7151;52.246;4.820;2022-09-14T05:38:35;21.20;66.50
14142;DHT22;7151;52.246;4.820;2022-09-14T05:41:01;21.20;66.70
14142;DHT22;7151;52.246;4.820;2022-09-14T05:43:27;21.20;66.70
14142;DHT22;7151;52.246;4.820;2022-09-14T05:45:53;21.20;66.70
14142;DHT22;7151;52.246;4.820;2022-09-14T05:48:19;21.20;66.70
14142;DHT22;7151;52.246;4.820;2022-09-14T05:50:45;21.20;66.60
14142;DHT22;7151;52.246;4.820;2022-09-14T05:53:10;21.20;66.70
14142;DHT22;7151;52.246;4.820;2022-09-14T05:55:36;21.20;66.70
14142;DHT22;7151;52.246;4.820;2022-09-14T05:58:02;21.10;66.70
14142;DHT22;7151;52.246;4.820;2022-09-14T06:00:27;21.20;67.00
14142;DHT22;7151;52.246;4.820;2022-09-14T06:02:54;21.20;67.10
14142;DHT22;7151;52.246;4.820;2022-09-14T06:05:20;21.20;67.20
14142;DHT22;7151;52.246;4.820;2022-09-14T06:07:52;21.20;67.30
14142;DHT22;7151;52.246;4.820;2022-09-14T06:10:19;21.20;67.50
14142;DHT22;7151;52.246;4.820;2022-09-14T06:12:45;21.20;67.50
14142;DHT22;7151;52.246;4.820;2022-09-14T06:15:11;21.20;67.50
14142;DHT22;7151;52.246;4.820;2022-09-14T06:17:37;21.20;67.60
14142;DHT22;7151;52.246;4.820;2022-09-14T06:20:05;21.20;67.60
14142;DHT22;7151;52.246;4.820;2022-09-14T06:22:33;21.20;67.90
14142;DHT22;7151;52.246;4.820;2022-09-14T06:24:59;21.20;67.90
14142;DHT22;7151;52.246;4.820;2022-09-14T06:27:25;21.20;68.00
14142;DHT22;7151;52.246;4.820;2022-09-14T06:29:52;21.20;68.10
14142;DHT22;7151;52.246;4.820;2022-09-14T06:32:19;21.20;68.10
14142;DHT22;7151;52.246;4.820;2022-09-14T06:34:45;21.20;68.10
14142;DHT22;7151;52.246;4.820;2022-09-14T06:37:11;21.20;68.10
14142;DHT22;7151;52.246;4.820;2022-09-14T06:39:36;21.20;68.00
14142;DHT22;7151;52.246;4.820;2022-09-14T06:42:02;21.20;68.00
14142;DHT22;7151;52.246;4.820;2022-09-14T06:44:28;21.20;68.00
14142;DHT22;7151;52.246;4.820;2022-09-14T06:46:54;21.20;68.00
14142;DHT22;7151;52.246;4.820;2022-09-14T06:49:19;21.20;68.00
14142;DHT22;7151;52.246;4.820;2022-09-14T06:51:48;21.20;67.80
14142;DHT22;7151;52.246;4.820;2022-09-14T06:54:16;21.20;67.70
14142;DHT22;7151;52.246;4.820;2022-09-14T06:56:43;21.20;67.60
14142;DHT22;7151;52.246;4.820;2022-09-14T06:59:11;21.30;67.60
14142;DHT22;7151;52.246;4.820;2022-09-14T07:01:37;21.30;67.40
14142;DHT22;7151;52.246;4.820;2022-09-14T07:04:03;21.30;67.20
14142;DHT22;7151;52.246;4.820;2022-09-14T07:06:38;21.30;67.00
14142;DHT22;7151;52.246;4.820;2022-09-14T07:09:04;21.30;66.90
14142;DHT22;7151;52.246;4.820;2022-09-14T07:11:30;21.30;66.80
14142;DHT22;7151;52.246;4.820;2022-09-14T07:13:57;21.30;66.80
14142;DHT22;7151;52.246;4.820;2022-09-14T07:16:24;21.40;66.80
14142;DHT22;7151;52.246;4.820;2022-09-14T07:18:54;21.40;66.80
14142;DHT22;7151;52.246;4.820;2022-09-14T07:21:20;21.40;66.70
14142;DHT22;7151;52.246;4.820;2022-09-14T07:23:47;21.40;66.70
14142;DHT22;7151;52.246;4.820;2022-09-14T07:26:18;21.40;66.40
14142;DHT22;7151;52.246;4.820;2022-09-14T07:28:47;21.50;66.20
14142;DHT22;7151;52.246;4.820;2022-09-14T07:33:44;21.50;66.00
14142;DHT22;7151;52.246;4.820;2022-09-14T07:36:10;21.50;65.90
14142;DHT22;7151;52.246;4.820;2022-09-14T07:38:37;21.50;65.80
14142;DHT22;7151;52.246;4.820;2022-09-14T07:41:02;21.50;65.70
14142;DHT22;7151;52.246;4.820;2022-09-14T07:43:29;21.50;65.50
14142;DHT22;7151;52.246;4.820;2022-09-14T07:45:55;21.60;65.50
14142;DHT22;7151;52.246;4.820;2022-09-14T07:48:20;21.60;65.40
14142;DHT22;7151;52.246;4.820;2022-09-14T07:50:46;21.60;65.30
14142;DHT22;7151;52.246;4.820;2022-09-14T07:53:13;21.60;65.10
14142;DHT22;7151;52.246;4.820;2022-09-14T07:55:39;21.60;65.00
14142;DHT22;7151;52.246;4.820;2022-09-14T07:58:05;21.60;64.90
14142;DHT22;7151;52.246;4.820;2022-09-14T08:00:31;21.60;64.90
14142;DHT22;7151;52.246;4.820;2022-09-14T08:02:57;21.60;64.90
14142;DHT22;7151;52.246;4.820;2022-09-14T08:05:24;21.60;64.70
14142;DHT22;7151;52.246;4.820;2022-09-14T08:07:54;21.60;64.70
14142;DHT22;7151;52.246;4.820;2022-09-14T08:10:20;21.60;64.60
14142;DHT22;7151;52.246;4.820;2022-09-14T08:12:50;21.60;64.50
14142;DHT22;7151;52.246;4.820;2022-09-14T08:15:16;21.60;64.40
14142;DHT22;7151;52.246;4.820;2022-09-14T08:17:42;21.60;64.40
14142;DHT22;7151;52.246;4.820;2022-09-14T08:20:08;21.60;64.40
14142;DHT22;7151;52.246;4.820;2022-09-14T08:22:33;21.60;64.40
14142;DHT22;7151;52.246;4.820;2022-09-14T08:24:59;21.70;64.60
14142;DHT22;7151;52.246;4.820;2022-09-14T08:27:24;21.60;64.50
14142;DHT22;7151;52.246;4.820;2022-09-14T08:29:50;21.70;64.60
14142;DHT22;7151;52.246;4.820;2022-09-14T08:32:16;21.70;64.70
14142;DHT22;7151;52.246;4.820;2022-09-14T08:34:41;21.70;64.70
14142;DHT22;7151;52.246;4.820;2022-09-14T08:37:07;21.70;64.70
14142;DHT22;7151;52.246;4.820;2022-09-14T08:39:34;21.70;64.80
14142;DHT22;7151;52.246;4.820;2022-09-14T08:41:59;21.70;64.80
14142;DHT22;7151;52.246;4.820;2022-09-14T08:44:34;21.60;64.70
14142;DHT22;7151;52.246;4.820;2022-09-14T08:47:15;21.60;64.60
14142;DHT22;7151;52.246;4.820;2022-09-14T08:54:55;21.70;64.50
14142;DHT22;7151;52.246;4.820;2022-09-14T08:57:41;21.70;64.50
14142;DHT22;7151;52.246;4.820;2022-09-14T09:00:12;21.70;64.30
14142;DHT22;7151;52.246;4.820;2022-09-14T09:05:29;21.70;64.40
14142;DHT22;7151;52.246;4.820;2022-09-14T09:08:19;21.70;64.40
14142;DHT22;7151;52.246;4.820;2022-09-14T09:10:48;21.70;65.00
14142;DHT22;7151;52.246;4.820;2022-09-14T09:13:19;21.70;64.20
14142;DHT22;7151;52.246;4.820;2022-09-14T09:15:49;21.70;64.10
14142;DHT22;7151;52.246;4.820;2022-09-14T09:18:31;21.70;64.20
14142;DHT22;7151;52.246;4.820;2022-09-14T09:21:03;21.70;64.20
14142;DHT22;7151;52.246;4.820;2022-09-14T09:23:31;21.80;64.20
14142;DHT22;7151;52.246;4.820;2022-09-14T09:28:45;21.80;63.90
14142;DHT22;7151;52.246;4.820;2022-09-14T09:31:14;21.80;63.90
14142;DHT22;7151;52.246;4.820;2022-09-14T09:33:41;21.80;63.90
14142;DHT22;7151;52.246;4.820;2022-09-14T09:36:09;21.80;63.90
14142;DHT22;7151;52.246;4.820;2022-09-14T09:38:37;21.80;63.90
14142;DHT22;7151;52.246;4.820;2022-09-14T09:41:16;21.80;63.90
14142;DHT22;7151;52.246;4.820;2022-09-14T09:43:58;21.80;63.90
14142;DHT22;7151;52.246;4.820;2022-09-14T09:46:34;21.80;63.80
14142;DHT22;7151;52.246;4.820;2022-09-14T09:49:03;21.80;63.90
14142;DHT22;7151;52.246;4.820;2022-09-14T09:51:30;21.90;64.00
14142;DHT22;7151;52.246;4.820;2022-09-14T09:54:01;21.90;64.10
14142;DHT22;7151;52.246;4.820;2022-09-14T09:56:31;21.90;64.10
14142;DHT22;7151;52.246;4.820;2022-09-14T09:58:57;21.90;64.00
14142;DHT22;7151;52.246;4.820;2022-09-14T10:01:30;21.90;63.90
14142;DHT22;7151;52.246;4.820;2022-09-14T10:04:20;21.90;63.70
14142;DHT22;7151;52.246;4.820;2022-09-14T10:06:48;22.00;63.70
14142;DHT22;7151;52.246;4.820;2022-09-14T10:09:20;22.00;63.70
14142;DHT22;7151;52.246;4.820;2022-09-14T10:11:47;22.00;63.70
14142;DHT22;7151;52.246;4.820;2022-09-14T10:14:29;22.00;63.60
14142;DHT22;7151;52.246;4.820;2022-09-14T10:17:15;22.00;63.60
14142;DHT22;7151;52.246;4.820;2022-09-14T10:19:53;22.00;63.70
14142;DHT22;7151;52.246;4.820;2022-09-14T10:22:29;22.00;63.60
14142;DHT22;7151;52.246;4.820;2022-09-14T10:25:00;22.00;63.70
14142;DHT22;7151;52.246;4.820;2022-09-14T10:27:48;22.00;63.80
14142;DHT22;7151;52.246;4.820;2022-09-14T10:30:19;22.00;63.90
14142;DHT22;7151;52.246;4.820;2022-09-14T10:32:53;22.10;64.00
14142;DHT22;7151;52.246;4.820;2022-09-14T10:35:22;22.10;63.80
14142;DHT22;7151;52.246;4.820;2022-09-14T10:40:19;22.10;63.30
14142;DHT22;7151;52.246;4.820;2022-09-14T10:43:02;22.10;63.80
14142;DHT22;7151;52.246;4.820;2022-09-14T10:45:38;22.10;62.80
14142;DHT22;7151;52.246;4.820;2022-09-14T10:50:54;22.20;62.60
14142;DHT22;7151;52.246;4.820;2022-09-14T10:53:39;22.20;62.50
14142;DHT22;7151;52.246;4.820;2022-09-14T10:58:47;22.20;62.60
14142;DHT22;7151;52.246;4.820;2022-09-14T11:01:24;22.20;62.30
14142;DHT22;7151;52.246;4.820;2022-09-14T11:08:59;22.40;61.90
14142;DHT22;7151;52.246;4.820;2022-09-14T11:14:38;22.50;61.90
14142;DHT22;7151;52.246;4.820;2022-09-14T11:20:19;22.60;61.80
14142;DHT22;7151;52.246;4.820;2022-09-14T11:25:45;22.70;61.50
14142;DHT22;7151;52.246;4.820;2022-09-14T11:28:23;22.80;61.50
14142;DHT22;7151;52.246;4.820;2022-09-14T11:30:54;22.90;61.20
14142;DHT22;7151;52.246;4.820;2022-09-14T11:33:42;22.90;60.60
14142;DHT22;7151;52.246;4.820;2022-09-14T11:36:42;23.00;60.20
14142;DHT22;7151;52.246;4.820;2022-09-14T11:39:15;23.00;59.90
14142;DHT22;7151;52.246;4.820;2022-09-14T11:41:47;23.10;59.80
14142;DHT22;7151;52.246;4.820;2022-09-14T11:44:23;23.20;59.80
14142;DHT22;7151;52.246;4.820;2022-09-14T11:46:58;23.20;59.60
14142;DHT22;7151;52.246;4.820;2022-09-14T11:54:42;23.40;59.40
14142;DHT22;7151;52.246;4.820;2022-09-14T11:57:23;23.50;59.30
14142;DHT22;7151;52.246;4.820;2022-09-14T11:59:51;23.60;58.80
14142;DHT22;7151;52.246;4.820;2022-09-14T12:10:24;23.80;57.70
14142;DHT22;7151;52.246;4.820;2022-09-14T12:13:16;23.80;57.40
14142;DHT22;7151;52.246;4.820;2022-09-14T12:15:43;23.80;57.30
14142;DHT22;7151;52.246;4.820;2022-09-14T12:23:29;23.90;57.00
14142;DHT22;7151;52.246;4.820;2022-09-14T12:36:10;24.20;56.70
14142;DHT22;7151;52.246;4.820;2022-09-14T12:56:36;24.50;56.20
14142;DHT22;7151;52.246;4.820;2022-09-14T13:04:37;24.60;55.80
14142;DHT22;7151;52.246;4.820;2022-09-14T13:07:05;24.60;55.60
14142;DHT22;7151;52.246;4.820;2022-09-14T13:09:32;24.60;55.70
14142;DHT22;7151;52.246;4.820;2022-09-14T13:12:05;24.60;55.60
14142;DHT22;7151;52.246;4.820;2022-09-14T13:14:45;24.70;55.40
14142;DHT22;7151;52.246;4.820;2022-09-14T13:17:14;24.70;55.30
14142;DHT22;7151;52.246;4.820;2022-09-14T13:19:40;24.70;55.30
14142;DHT22;7151;52.246;4.820;2022-09-14T13:22:21;24.80;55.40
14142;DHT22;7151;52.246;4.820;2022-09-14T13:24:48;24.80;55.10
14142;DHT22;7151;52.246;4.820;2022-09-14T13:27:21;25.00;55.20
14142;DHT22;7151;52.246;4.820;2022-09-14T13:29:47;25.00;55.10
14142;DHT22;7151;52.246;4.820;2022-09-14T13:32:19;25.10;55.00
14142;DHT22;7151;52.246;4.820;2022-09-14T13:34:45;25.20;54.90
14142;DHT22;7151;52.246;4.820;2022-09-14T13:37:14;25.20;54.80
14142;DHT22;7151;52.246;4.820;2022-09-14T13:39:40;25.40;54.50
14142;DHT22;7151;52.246;4.820;2022-09-14T13:42:14;25.40;54.40
14142;DHT22;7151;52.246;4.820;2022-09-14T13:44:42;25.50;54.10
14142;DHT22;7151;52.246;4.820;2022-09-14T13:47:17;25.60;53.90
14142;DHT22;7151;52.246;4.820;2022-09-14T13:49:44;25.60;53.60
14142;DHT22;7151;52.246;4.820;2022-09-14T13:55:21;25.70;53.40
14142;DHT22;7151;52.246;4.820;2022-09-14T14:01:01;25.80;53.20
14142;DHT22;7151;52.246;4.820;2022-09-14T14:03:37;25.80;53.40
14142;DHT22;7151;52.246;4.820;2022-09-14T14:06:27;25.80;53.40
14142;DHT22;7151;52.246;4.820;2022-09-14T14:08:59;25.80;53.20
14142;DHT22;7151;52.246;4.820;2022-09-14T14:11:32;25.70;53.10
14142;DHT22;7151;52.246;4.820;2022-09-14T14:16:40;25.70;52.60
14142;DHT22;7151;52.246;4.820;2022-09-14T14:19:26;25.70;52.60
14142;DHT22;7151;52.246;4.820;2022-09-14T14:22:15;25.70;52.40
14142;DHT22;7151;52.246;4.820;2022-09-14T14:24:42;25.70;52.50
14142;DHT22;7151;52.246;4.820;2022-09-14T14:27:29;25.70;52.60
14142;DHT22;7151;52.246;4.820;2022-09-14T14:29:56;25.70;52.60
14142;DHT22;7151;52.246;4.820;2022-09-14T14:32:22;25.70;52.60
14142;DHT22;7151;52.246;4.820;2022-09-14T14:34:48;25.70;52.40
14142;DHT22;7151;52.246;4.820;2022-09-14T14:37:13;25.80;52.20
14142;DHT22;7151;52.246;4.820;2022-09-14T14:39:39;25.70;52.00
14142;DHT22;7151;52.246;4.820;2022-09-14T14:42:05;25.70;52.00
14142;DHT22;7151;52.246;4.820;2022-09-14T14:44:32;25.70;52.00
14142;DHT22;7151;52.246;4.820;2022-09-14T14:46:58;25.70;52.10
14142;DHT22;7151;52.246;4.820;2022-09-14T14:49:24;25.70;52.00
14142;DHT22;7151;52.246;4.820;2022-09-14T14:51:50;25.70;52.00
14142;DHT22;7151;52.246;4.820;2022-09-14T14:54:16;25.70;51.90
14142;DHT22;7151;52.246;4.820;2022-09-14T14:56:44;25.70;51.80
14142;DHT22;7151;52.246;4.820;2022-09-14T15:01:44;25.60;52.10
14142;DHT22;7151;52.246;4.820;2022-09-14T15:04:09;25.60;52.40
14142;DHT22;7151;52.246;4.820;2022-09-14T15:06:35;25.60;52.50
14142;DHT22;7151;52.246;4.820;2022-09-14T15:09:01;25.60;52.60
14142;DHT22;7151;52.246;4.820;2022-09-14T15:11:30;25.50;52.70
14142;DHT22;7151;52.246;4.820;2022-09-14T15:13:56;25.50;52.70
14142;DHT22;7151;52.246;4.820;2022-09-14T15:16:21;25.50;52.90
14142;DHT22;7151;52.246;4.820;2022-09-14T15:18:47;25.50;53.00
14142;DHT22;7151;52.246;4.820;2022-09-14T15:21:12;25.50;53.10
14142;DHT22;7151;52.246;4.820;2022-09-14T15:23:38;25.50;53.30
14142;DHT22;7151;52.246;4.820;2022-09-14T15:26:04;25.50;53.40
14142;DHT22;7151;52.246;4.820;2022-09-14T15:28:30;25.50;53.50
14142;DHT22;7151;52.246;4.820;2022-09-14T15:30:55;25.50;53.70
14142;DHT22;7151;52.246;4.820;2022-09-14T15:33:24;25.50;53.80
14142;DHT22;7151;52.246;4.820;2022-09-14T15:35:56;25.60;53.70
14142;DHT22;7151;52.246;4.820;2022-09-14T15:38:22;25.50;53.60
14142;DHT22;7151;52.246;4.820;2022-09-14T15:40:48;25.50;53.50
14142;DHT22;7151;52.246;4.820;2022-09-14T15:43:14;25.50;53.50
14142;DHT22;7151;52.246;4.820;2022-09-14T15:45:39;25.50;53.50
14142;DHT22;7151;52.246;4.820;2022-09-14T15:48:14;25.50;53.50
14142;DHT22;7151;52.246;4.820;2022-09-14T15:50:46;25.50;53.50
14142;DHT22;7151;52.246;4.820;2022-09-14T15:53:13;25.50;53.50
14142;DHT22;7151;52.246;4.820;2022-09-14T15:55:40;25.40;53.40
14142;DHT22;7151;52.246;4.820;2022-09-14T15:58:06;25.50;53.50
14142;DHT22;7151;52.246;4.820;2022-09-14T16:00:33;25.50;53.50
14142;DHT22;7151;52.246;4.820;2022-09-14T16:02:59;25.40;53.40
14142;DHT22;7151;52.246;4.820;2022-09-14T16:05:24;25.40;53.40
14142;DHT22;7151;52.246;4.820;2022-09-14T16:07:54;25.40;53.40
14142;DHT22;7151;52.246;4.820;2022-09-14T16:10:20;25.40;53.50
14142;DHT22;7151;52.246;4.820;2022-09-14T16:12:47;25.40;53.40
14142;DHT22;7151;52.246;4.820;2022-09-14T16:15:12;25.40;53.40
14142;DHT22;7151;52.246;4.820;2022-09-14T16:17:38;25.40;53.30
14142;DHT22;7151;52.246;4.820;2022-09-14T16:20:04;25.30;53.00
14142;DHT22;7151;52.246;4.820;2022-09-14T16:22:31;25.30;52.90
14142;DHT22;7151;52.246;4.820;2022-09-14T16:24:56;25.30;52.80
14142;DHT22;7151;52.246;4.820;2022-09-14T16:27:22;25.30;52.70
14142;DHT22;7151;52.246;4.820;2022-09-14T16:29:48;25.20;52.60
14142;DHT22;7151;52.246;4.820;2022-09-14T16:32:13;25.20;52.60
14142;DHT22;7151;52.246;4.820;2022-09-14T16:34:39;25.20;52.60
14142;DHT22;7151;52.246;4.820;2022-09-14T16:37:05;25.20;52.50
14142;DHT22;7151;52.246;4.820;2022-09-14T16:39:30;25.10;52.50
14142;DHT22;7151;52.246;4.820;2022-09-14T16:41:59;25.10;52.50
14142;DHT22;7151;52.246;4.820;2022-09-14T16:44:26;25.10;52.60
14142;DHT22;7151;52.246;4.820;2022-09-14T16:46:54;25.10;52.70
14142;DHT22;7151;52.246;4.820;2022-09-14T16:49:22;25.00;52.70
14142;DHT22;7151;52.246;4.820;2022-09-14T16:51:47;25.00;52.80
14142;DHT22;7151;52.246;4.820;2022-09-14T16:54:18;25.00;52.90
14142;DHT22;7151;52.246;4.820;2022-09-14T16:56:44;24.90;53.00
14142;DHT22;7151;52.246;4.820;2022-09-14T16:59:11;24.90;53.00
14142;DHT22;7151;52.246;4.820;2022-09-14T17:01:39;24.80;53.00
14142;DHT22;7151;52.246;4.820;2022-09-14T17:04:08;24.90;53.10
14142;DHT22;7151;52.246;4.820;2022-09-14T17:06:36;24.80;53.20
14142;DHT22;7151;52.246;4.820;2022-09-14T17:09:09;24.80;53.20
14142;DHT22;7151;52.246;4.820;2022-09-14T17:11:37;24.80;53.30
14142;DHT22;7151;52.246;4.820;2022-09-14T17:14:03;24.80;53.30
14142;DHT22;7151;52.246;4.820;2022-09-14T17:16:29;24.80;53.40
14142;DHT22;7151;52.246;4.820;2022-09-14T17:19:00;24.80;53.40
14142;DHT22;7151;52.246;4.820;2022-09-14T17:21:37;24.70;53.50
14142;DHT22;7151;52.246;4.820;2022-09-14T17:24:04;24.70;53.50
14142;DHT22;7151;52.246;4.820;2022-09-14T17:26:31;24.70;53.50
14142;DHT22;7151;52.246;4.820;2022-09-14T17:28:58;24.70;53.60
14142;DHT22;7151;52.246;4.820;2022-09-14T17:31:26;24.70;53.60
14142;DHT22;7151;52.246;4.820;2022-09-14T17:33:53;24.70;53.70
14142;DHT22;7151;52.246;4.820;2022-09-14T17:36:20;24.70;53.70
14142;DHT22;7151;52.246;4.820;2022-09-14T17:38:45;24.60;53.60
14142;DHT22;7151;52.246;4.820;2022-09-14T17:41:16;24.60;53.70
14142;DHT22;7151;52.246;4.820;2022-09-14T17:43:42;24.60;53.60
14142;DHT22;7151;52.246;4.820;2022-09-14T17:46:12;24.60;53.60
14142;DHT22;7151;52.246;4.820;2022-09-14T17:48:39;24.60;53.60
14142;DHT22;7151;52.246;4.820;2022-09-14T17:51:16;24.50;53.60
14142;DHT22;7151;52.246;4.820;2022-09-14T17:53:45;24.50;53.80
14142;DHT22;7151;52.246;4.820;2022-09-14T17:56:13;24.50;53.80
14142;DHT22;7151;52.246;4.820;2022-09-14T17:58:40;24.50;53.90
14142;DHT22;7151;52.246;4.820;2022-09-14T18:03:41;24.40;54.00